createdAt,value
2018-10-17T00:00:37.389Z,9.70
2018-10-17T00:03:40.959Z,9.23
2018-10-17T00:06:44.604Z,10.30
2018-10-17T00:09:48.209Z,9.83
2018-10-17T00:12:51.887Z,10.57
2018-10-17T00:15:55.423Z,10.00
2018-10-17T00:18:59.077Z,10.33
2018-10-17T00:22:02.668Z,11.17
2018-10-17T00:25:06.879Z,10.67
2018-10-17T00:28:10.353Z,11.60
2018-10-17T00:31:14.003Z,11.50
2018-10-17T00:34:17.483Z,11.17
2018-10-17T00:37:21.119Z,10.60
2018-10-17T00:40:25.503Z,10.33
2018-10-17T00:43:29.149Z,11.23
2018-10-17T00:46:32.754Z,10.57
2018-10-17T00:49:36.240Z,11.27
2018-10-17T00:52:39.790Z,10.60
2018-10-17T00:55:43.365Z,10.73
2018-10-17T00:59:01.509Z,11.40
2018-10-17T01:02:05.137Z,11.70
2018-10-17T01:05:08.910Z,11.30
2018-10-17T01:08:12.424Z,11.37
2018-10-17T01:11:15.992Z,12.27
2018-10-17T01:14:19.555Z,13.10
2018-10-17T01:17:23.311Z,12.60
2018-10-17T01:20:26.861Z,12.20
2018-10-17T01:23:30.409Z,13.10
2018-10-17T01:26:33.995Z,12.40
2018-10-17T01:29:37.806Z,12.77
2018-10-17T01:32:41.333Z,11.90
2018-10-17T01:35:44.976Z,13.30
2018-10-17T01:38:48.652Z,13.33
2018-10-17T01:41:52.164Z,13.47
2018-10-17T01:44:55.719Z,13.40
2018-10-17T01:47:59.364Z,13.10
2018-10-17T01:51:03.107Z,13.40
2018-10-17T01:54:06.815Z,14.57
2018-10-17T01:57:10.485Z,14.13
2018-10-17T02:00:14.145Z,13.50
2018-10-17T02:03:17.656Z,13.83
2018-10-17T02:06:21.244Z,13.20
2018-10-17T02:09:24.818Z,13.03
2018-10-17T02:12:28.479Z,13.67
2018-10-17T02:15:32.059Z,12.60
2018-10-17T02:18:35.630Z,11.70
2018-10-17T02:21:39.199Z,12.50
2018-10-17T02:24:42.843Z,12.50
2018-10-17T02:27:46.409Z,10.87
2018-10-17T02:30:49.977Z,10.93
2018-10-17T02:33:53.549Z,11.20
2018-10-17T02:36:57.146Z,11.40
2018-10-17T02:40:00.761Z,11.20
2018-10-17T02:43:04.379Z,10.97
2018-10-17T02:46:07.840Z,10.10
2018-10-17T02:49:11.530Z,9.30
2018-10-17T02:52:14.984Z,10.80
2018-10-17T02:55:18.549Z,9.97
2018-10-17T02:58:22.064Z,10.60
2018-10-17T03:01:25.623Z,10.40
2018-10-17T03:04:29.311Z,9.03
2018-10-17T03:07:32.885Z,10.07
2018-10-17T03:10:36.387Z,10.20
2018-10-17T03:13:39.989Z,10.67
2018-10-17T03:16:43.540Z,11.27
2018-10-17T03:19:47.226Z,10.20
2018-10-17T03:22:50.858Z,11.17
2018-10-17T03:25:54.421Z,10.77
2018-10-17T03:28:58.039Z,10.57
2018-10-17T03:32:01.729Z,11.03
2018-10-17T03:35:05.688Z,10.80
2018-10-17T03:38:09.200Z,11.03
2018-10-17T03:41:12.794Z,9.87
2018-10-17T03:44:16.345Z,10.23
2018-10-17T03:47:19.914Z,10.43
2018-10-17T03:50:23.497Z,10.77
2018-10-17T03:53:27.146Z,10.70
2018-10-17T03:56:30.790Z,11.27
2018-10-17T03:59:34.463Z,11.03
2018-10-17T04:02:38.372Z,11.00
2018-10-17T04:05:41.916Z,11.50
2018-10-17T04:08:45.531Z,11.00
2018-10-17T04:11:49.194Z,11.20
2018-10-17T04:14:52.695Z,10.63
2018-10-17T04:17:56.485Z,10.80
2018-10-17T04:20:59.969Z,13.00
2018-10-17T04:24:03.555Z,11.33
2018-10-17T04:27:07.169Z,11.53
2018-10-17T04:30:10.787Z,11.43
2018-10-17T04:33:14.455Z,10.93
2018-10-17T04:36:18.117Z,11.30
2018-10-17T04:39:21.791Z,9.43
2018-10-17T04:42:25.459Z,10.90
2018-10-17T04:45:29.081Z,11.20
2018-10-17T04:48:32.934Z,10.70
2018-10-17T04:51:36.495Z,10.30
2018-10-17T04:54:40.232Z,10.80
2018-10-17T04:57:43.918Z,11.47
2018-10-17T05:00:47.500Z,12.00
2018-10-17T05:03:51.084Z,12.00
2018-10-17T05:06:54.666Z,12.97
2018-10-17T05:09:58.341Z,12.20
2018-10-17T05:13:02.112Z,12.57
2018-10-17T05:16:05.879Z,12.57
2018-10-17T05:19:09.518Z,14.17
2018-10-17T05:22:13.046Z,13.03
2018-10-17T05:25:16.674Z,12.77
2018-10-17T05:28:20.162Z,13.47
2018-10-17T05:31:23.855Z,14.00
2018-10-17T05:34:27.396Z,12.60
2018-10-17T05:37:31.166Z,11.47
2018-10-17T05:40:34.772Z,11.87
2018-10-17T05:43:38.346Z,11.63
2018-10-17T05:46:42.102Z,11.37
2018-10-17T05:49:45.681Z,10.47
2018-10-17T05:52:49.427Z,10.93
2018-10-17T05:55:52.992Z,10.80
2018-10-17T05:58:56.618Z,12.37
2018-10-17T06:02:01.212Z,12.83
2018-10-17T06:05:04.960Z,11.90
2018-10-17T06:08:08.647Z,12.70
2018-10-17T06:11:12.330Z,10.77
2018-10-17T06:14:16.810Z,11.50
2018-10-17T06:17:20.452Z,12.60
2018-10-17T06:20:24.040Z,13.80
2018-10-17T06:23:27.725Z,13.50
2018-10-17T06:26:31.387Z,12.70
2018-10-17T06:29:35.011Z,13.07
2018-10-17T06:32:38.796Z,11.40
2018-10-17T06:35:42.327Z,11.40
2018-10-17T06:38:46.065Z,11.50
2018-10-17T06:41:49.676Z,10.90
2018-10-17T06:44:53.272Z,10.80
2018-10-17T06:47:56.858Z,11.20
2018-10-17T06:51:00.474Z,12.00
2018-10-17T06:54:04.158Z,9.83
2018-10-17T06:57:07.617Z,11.07
2018-10-17T07:00:11.924Z,12.53
2018-10-17T07:03:15.540Z,13.20
2018-10-17T07:06:19.190Z,11.77
2018-10-17T07:09:22.768Z,12.00
2018-10-17T07:12:26.351Z,11.40
2018-10-17T07:15:30.122Z,10.63
2018-10-17T07:18:33.637Z,12.17
2018-10-17T07:21:37.232Z,13.30
2018-10-17T07:24:40.908Z,12.00
2018-10-17T07:27:44.370Z,12.37
2018-10-17T07:30:47.923Z,11.03
2018-10-17T07:33:51.631Z,11.07
2018-10-17T07:36:55.151Z,10.63
2018-10-17T07:39:58.770Z,11.30
2018-10-17T07:43:02.389Z,10.73
2018-10-17T07:46:06.187Z,10.73
2018-10-17T07:49:09.721Z,10.43
2018-10-17T07:52:13.330Z,11.43
2018-10-17T07:55:16.984Z,12.90
2018-10-17T07:58:20.549Z,14.23
2018-10-17T08:01:24.135Z,14.33
2018-10-17T08:04:27.731Z,13.43
2018-10-17T08:07:31.391Z,12.80
2018-10-17T08:10:34.930Z,12.30
2018-10-17T08:13:38.517Z,11.53
2018-10-17T08:16:42.316Z,13.37
2018-10-17T08:19:45.960Z,13.20
2018-10-17T08:22:49.482Z,13.40
2018-10-17T08:25:53.042Z,13.27
2018-10-17T08:28:56.711Z,12.43
2018-10-17T08:32:00.306Z,11.83
2018-10-17T08:35:04.066Z,12.73
2018-10-17T08:38:07.789Z,11.23
2018-10-17T08:41:11.345Z,12.47
2018-10-17T08:44:15.256Z,12.17
2018-10-17T08:47:18.745Z,10.83
2018-10-17T08:50:22.596Z,10.70
2018-10-17T08:53:26.376Z,11.63
2018-10-17T08:56:29.977Z,10.80
2018-10-17T08:59:33.643Z,10.07
2018-10-17T09:02:37.213Z,9.50
2018-10-17T09:05:40.826Z,9.77
2018-10-17T09:08:44.448Z,10.63
2018-10-17T09:11:48.066Z,10.57
2018-10-17T09:14:51.848Z,9.67
2018-10-17T09:17:55.538Z,9.30
2018-10-17T09:20:59.475Z,9.17
2018-10-17T09:24:02.726Z,9.20
2018-10-17T09:27:06.387Z,9.40
2018-10-17T09:30:11.364Z,9.93
2018-10-17T09:33:15.001Z,11.13
2018-10-17T09:36:18.704Z,10.50
2018-10-17T09:39:22.227Z,10.30
2018-10-17T09:42:25.751Z,9.73
2018-10-17T09:45:29.337Z,9.80
2018-10-17T09:48:32.967Z,10.00
2018-10-17T09:51:36.546Z,10.50
2018-10-17T09:54:40.197Z,10.50
2018-10-17T09:57:43.786Z,10.80
2018-10-17T10:00:52.553Z,10.13
2018-10-17T10:03:56.166Z,10.50
2018-10-17T10:06:59.841Z,10.60
2018-10-17T10:10:03.568Z,9.50
2018-10-17T10:13:07.223Z,10.50
2018-10-17T10:16:10.943Z,9.40
2018-10-17T10:19:14.513Z,10.30
2018-10-17T10:22:18.182Z,9.77
2018-10-17T10:25:28.019Z,9.53
2018-10-17T10:28:31.722Z,9.70
2018-10-17T10:31:35.374Z,10.17
2018-10-17T10:34:39.083Z,9.40
2018-10-17T10:37:42.717Z,9.90
2018-10-17T10:40:46.541Z,9.73
2018-10-17T10:43:50.041Z,9.83
2018-10-17T10:46:53.631Z,9.77
2018-10-17T10:49:57.295Z,9.70
2018-10-17T10:53:01.130Z,9.57
2018-10-17T10:56:05.301Z,9.10
2018-10-17T10:59:08.842Z,9.63
2018-10-17T11:02:12.453Z,8.87
2018-10-17T11:05:16.209Z,10.07
2018-10-17T11:08:19.747Z,9.13
2018-10-17T11:11:23.326Z,10.33
2018-10-17T11:14:26.996Z,9.77
2018-10-17T11:17:30.641Z,9.30
2018-10-17T11:20:34.443Z,8.97
2018-10-17T11:23:38.029Z,9.90
2018-10-17T11:26:41.671Z,9.30
2018-10-17T11:29:45.267Z,9.53
2018-10-17T11:32:48.942Z,9.50
2018-10-17T11:35:52.526Z,9.07
2018-10-17T11:38:56.141Z,8.53
2018-10-17T11:41:59.728Z,8.70
2018-10-17T11:45:03.427Z,9.00
2018-10-17T11:48:07.019Z,9.00
2018-10-17T11:51:10.851Z,8.00
2018-10-17T11:54:14.493Z,8.87
2018-10-17T11:57:18.325Z,8.97
2018-10-17T12:00:21.847Z,8.40
2018-10-17T12:03:25.533Z,8.40
2018-10-17T12:06:29.276Z,9.03
2018-10-17T12:09:32.728Z,8.67
2018-10-17T12:12:36.782Z,9.00
2018-10-17T12:15:43.165Z,8.50
2018-10-17T12:18:46.876Z,8.40
2018-10-17T12:21:50.468Z,9.43
2018-10-17T12:24:54.145Z,8.17
2018-10-17T12:27:58.089Z,9.00
2018-10-17T12:31:01.658Z,9.23
2018-10-17T12:34:05.563Z,8.60
2018-10-17T12:37:09.286Z,8.50
2018-10-17T12:40:12.965Z,8.30
2018-10-17T12:43:16.532Z,8.70
2018-10-17T12:46:20.281Z,9.37
2018-10-17T12:49:24.016Z,9.47
2018-10-17T12:52:27.750Z,8.50
2018-10-17T12:55:31.342Z,8.30
2018-10-17T12:58:34.961Z,8.50
2018-10-17T13:01:38.698Z,9.00
2018-10-17T13:04:42.407Z,8.33
2018-10-17T13:07:46.096Z,8.23
2018-10-17T13:10:49.780Z,8.83
2018-10-17T13:13:53.376Z,8.27
2018-10-17T13:16:57.092Z,8.10
2018-10-17T13:20:00.707Z,8.13
2018-10-17T13:23:04.492Z,8.43
2018-10-17T13:26:08.080Z,7.57
2018-10-17T13:29:11.714Z,7.37
2018-10-17T13:32:15.429Z,7.77
2018-10-17T13:35:19.288Z,7.50
2018-10-17T13:38:22.697Z,7.80
2018-10-17T13:41:26.393Z,7.90
2018-10-17T13:44:30.161Z,7.90
2018-10-17T13:47:33.791Z,7.80
2018-10-17T13:50:37.448Z,7.80
2018-10-17T13:53:41.299Z,7.40
2018-10-17T13:56:44.868Z,7.57
2018-10-17T13:59:48.580Z,7.87
2018-10-17T14:02:52.196Z,7.37
2018-10-17T14:05:55.785Z,7.90
2018-10-17T14:08:59.472Z,8.17
2018-10-17T14:12:03.173Z,7.70
2018-10-17T14:15:06.957Z,8.27
2018-10-17T14:18:10.723Z,7.93
2018-10-17T14:21:14.479Z,7.70
2018-10-17T14:24:18.165Z,7.90
2018-10-17T14:27:21.717Z,7.93
2018-10-17T14:30:25.414Z,7.10
2018-10-17T14:33:28.979Z,8.10
2018-10-17T14:36:32.673Z,7.73
2018-10-17T14:39:36.307Z,8.03
2018-10-17T14:42:39.932Z,8.00
2018-10-17T14:45:43.649Z,8.00
2018-10-17T14:48:47.223Z,7.33
2018-10-17T14:51:50.996Z,8.20
2018-10-17T14:54:54.539Z,7.97
2018-10-17T14:57:58.163Z,8.47
2018-10-17T15:01:01.939Z,7.87
2018-10-17T15:04:05.729Z,7.77
2018-10-17T15:07:09.313Z,8.20
2018-10-17T15:10:13.112Z,8.00
2018-10-17T15:13:16.751Z,7.80
2018-10-17T15:16:20.411Z,8.60
2018-10-17T15:19:24.143Z,7.50
2018-10-17T15:22:28.051Z,8.13
2018-10-17T15:25:31.958Z,7.60
2018-10-17T15:28:35.598Z,8.40
2018-10-17T15:31:39.294Z,7.60
2018-10-17T15:34:43.368Z,8.40
2018-10-17T15:37:46.925Z,8.23
2018-10-17T15:40:50.534Z,8.93
2018-10-17T15:43:54.134Z,8.00
2018-10-17T15:46:58.645Z,7.90
2018-10-17T15:50:03.174Z,8.27
2018-10-17T15:53:06.959Z,8.40
2018-10-17T15:56:10.638Z,8.20
2018-10-17T15:59:14.297Z,8.63
2018-10-17T16:02:18.135Z,8.37
2018-10-17T16:05:21.837Z,8.60
2018-10-17T16:08:25.472Z,8.20
2018-10-17T16:11:29.161Z,8.77
2018-10-17T16:14:32.875Z,8.60
2018-10-17T16:17:36.643Z,8.40
2018-10-17T16:20:40.348Z,8.30
2018-10-17T16:23:44.064Z,8.60
2018-10-17T16:26:47.775Z,8.40
2018-10-17T16:29:51.405Z,8.20
2018-10-17T16:32:55.099Z,8.53
2018-10-17T16:35:58.850Z,8.70
2018-10-17T16:39:02.511Z,8.03
2018-10-17T16:42:06.684Z,7.70
2018-10-17T16:45:11.200Z,9.17
2018-10-17T16:48:14.958Z,8.70
2018-10-17T16:51:18.561Z,9.03
2018-10-17T16:54:22.248Z,8.17
2018-10-17T16:57:26.051Z,8.63
2018-10-17T17:00:29.818Z,9.03
2018-10-17T17:03:33.553Z,8.63
2018-10-17T17:06:37.186Z,9.03
2018-10-17T17:09:40.841Z,10.07
2018-10-17T17:12:44.630Z,9.47
2018-10-17T17:15:48.225Z,9.60
2018-10-17T17:18:51.852Z,9.37
2018-10-17T17:21:55.588Z,9.23
2018-10-17T17:24:59.323Z,9.40
2018-10-17T17:28:03.053Z,10.00
2018-10-17T17:31:06.958Z,9.73
2018-10-17T17:34:10.640Z,10.00
2018-10-17T17:37:14.314Z,11.30
2018-10-17T17:40:18.031Z,10.37
2018-10-17T17:43:21.711Z,11.57
2018-10-17T17:46:25.384Z,12.20
2018-10-17T17:49:29.275Z,12.30
2018-10-17T17:52:33.130Z,12.80
2018-10-17T17:55:36.836Z,13.00
2018-10-17T17:58:40.670Z,12.20
2018-10-17T18:01:44.444Z,11.40
2018-10-17T18:04:48.254Z,13.40
2018-10-17T18:07:52.008Z,15.13
2018-10-17T18:10:55.703Z,14.20
2018-10-17T18:13:59.636Z,15.23
2018-10-17T18:17:03.526Z,16.03
2018-10-17T18:20:07.528Z,16.50
2018-10-17T18:23:11.290Z,18.03
2018-10-17T18:26:15.243Z,19.87
2018-10-17T18:29:19.242Z,19.63
2018-10-17T18:32:22.988Z,21.10
2018-10-17T18:35:26.806Z,21.73
2018-10-17T18:38:30.868Z,22.37
2018-10-17T18:41:41.183Z,25.43
2018-10-17T18:44:44.904Z,25.93
2018-10-17T18:47:48.802Z,27.00
2018-10-17T18:50:52.530Z,27.43
2018-10-17T18:53:56.333Z,30.63
2018-10-17T18:57:00.223Z,30.90
2018-10-17T19:00:04.069Z,30.30
2018-10-17T19:03:07.829Z,32.37
2018-10-17T19:06:11.708Z,32.50
2018-10-17T19:09:15.593Z,34.00
2018-10-17T19:12:19.484Z,35.33
2018-10-17T19:15:23.080Z,35.00
2018-10-17T19:18:27.042Z,37.40
2018-10-17T19:21:30.779Z,36.27
2018-10-17T19:24:34.662Z,37.30
2018-10-17T19:27:38.336Z,38.53
2018-10-17T19:30:42.018Z,38.80
2018-10-17T19:33:45.840Z,40.50
2018-10-17T19:36:49.754Z,41.30
2018-10-17T19:39:53.598Z,41.23
2018-10-17T19:42:57.324Z,43.03
2018-10-17T19:46:01.126Z,43.00
2018-10-17T19:49:05.174Z,43.67
2018-10-17T19:52:09.008Z,43.63
2018-10-17T19:55:12.723Z,44.70
2018-10-17T19:58:16.472Z,47.10
2018-10-17T20:01:20.182Z,49.37
2018-10-17T20:04:25.963Z,48.60
2018-10-17T20:07:29.672Z,49.60
2018-10-17T20:10:33.447Z,48.10
2018-10-17T20:13:37.346Z,50.57
2018-10-17T20:16:41.070Z,49.50
2018-10-17T20:19:44.852Z,51.53
2018-10-17T20:22:48.473Z,51.60
2018-10-17T20:25:52.258Z,52.73
2018-10-17T20:32:37.105Z,55.17
2018-10-17T20:39:53.188Z,63.40
2018-10-17T21:07:33.114Z,53.90
2018-10-17T21:10:36.753Z,55.67
2018-10-17T21:13:40.538Z,56.30
2018-10-17T21:16:44.479Z,54.97
2018-10-17T21:19:48.146Z,57.70
2018-10-17T21:22:51.776Z,54.97
2018-10-17T21:25:55.421Z,55.60
2018-10-17T21:28:59.039Z,53.90
2018-10-17T21:32:02.879Z,52.20
2018-10-17T21:35:07.056Z,51.37
2018-10-17T21:38:12.182Z,53.77
2018-10-17T21:41:15.955Z,55.20
2018-10-17T21:44:19.507Z,56.43
2018-10-17T21:47:23.197Z,57.30
2018-10-17T21:50:26.711Z,58.90
2018-10-17T21:53:30.430Z,57.73
2018-10-17T21:56:34.002Z,58.07
2018-10-17T21:59:37.699Z,60.73
2018-10-17T22:02:41.399Z,62.00
2018-10-17T22:05:45.273Z,64.40
2018-10-17T22:08:48.866Z,63.00
2018-10-17T22:11:52.477Z,61.83
2018-10-17T22:14:56.075Z,63.57
2018-10-17T22:17:59.669Z,61.60
2018-10-17T22:21:03.235Z,65.37
2018-10-17T22:24:06.995Z,60.73
2018-10-17T22:27:10.602Z,62.23
2018-10-17T22:30:14.315Z,61.40
2018-10-17T22:33:18.063Z,60.67
2018-10-17T22:36:21.783Z,57.27
2018-10-17T22:39:25.445Z,56.97
2018-10-17T22:42:29.019Z,55.60
2018-10-17T22:45:32.594Z,54.90
2018-10-17T22:48:36.253Z,51.63
2018-10-17T22:51:40.338Z,53.20
2018-10-17T22:54:44.002Z,51.23
2018-10-17T22:57:47.725Z,51.33
2018-10-17T23:00:51.333Z,50.90
2018-10-17T23:03:54.993Z,52.73
2018-10-17T23:06:58.559Z,52.63
2018-10-17T23:10:02.165Z,53.03
2018-10-17T23:13:06.030Z,49.13
2018-10-17T23:16:09.654Z,50.10
2018-10-17T23:19:13.239Z,52.00
2018-10-17T23:22:18.103Z,51.83
2018-10-17T23:25:21.843Z,49.57
2018-10-17T23:28:25.667Z,50.80
2018-10-17T23:31:29.220Z,53.07
2018-10-17T23:34:32.891Z,51.53
2018-10-17T23:37:36.545Z,52.93
2018-10-17T23:40:40.100Z,55.10
2018-10-17T23:43:43.684Z,53.00
2018-10-17T23:46:47.217Z,52.23
2018-10-17T23:49:50.809Z,54.33
2018-10-17T23:52:54.682Z,52.10
2018-10-17T23:55:58.295Z,55.47
2018-10-17T23:59:01.974Z,56.60
